sensor_id;sensor_type;location;lat;lon;timestamp;temperature;humidity
40738;DHT22;54759;48.094;-1.628;2023-02-14T00:00:35;20.50;45.30
40738;DHT22;54759;48.094;-1.628;2023-02-14T00:03:36;20.40;45.40
40738;DHT22;54759;48.094;-1.628;2023-02-14T00:06:38;20.60;45.30
40738;DHT22;54759;48.094;-1.628;2023-02-14T00:09:40;21.20;45.70
40738;DHT22;54759;48.094;-1.628;2023-02-14T00:12:41;20.60;45.40
40738;DHT22;54759;48.094;-1.628;2023-02-14T00:15:42;20.40;45.20
40738;DHT22;54759;48.094;-1.628;2023-02-14T00:18:43;20.70;45.30
40738;DHT22;54759;48.094;-1.628;2023-02-14T00:22:00;20.50;45.20
40738;DHT22;54759;48.094;-1.628;2023-02-14T00:25:01;20.60;45.30
40738;DHT22;54759;48.094;-1.628;2023-02-14T00:28:02;20.90;45.30
40738;DHT22;54759;48.094;-1.628;2023-02-14T00:31:04;20.40;45.10
40738;DHT22;54759;48.094;-1.628;2023-02-14T00:34:05;20.40;45.30
40738;DHT22;54759;48.094;-1.628;2023-02-14T00:37:07;20.60;45.30
40738;DHT22;54759;48.094;-1.628;2023-02-14T00:40:08;20.30;44.90
40738;DHT22;54759;48.094;-1.628;2023-02-14T00:43:10;20.60;45.20
40738;DHT22;54759;48.094;-1.628;2023-02-14T00:46:11;20.30;45.20
40738;DHT22;54759;48.094;-1.628;2023-02-14T00:49:14;20.70;45.40
40738;DHT22;54759;48.094;-1.628;2023-02-14T00:52:16;20.40;45.00
40738;DHT22;54759;48.094;-1.628;2023-02-14T00:55:17;20.70;45.30
40738;DHT22;54759;48.094;-1.628;2023-02-14T00:58:20;21.00;45.40
40738;DHT22;54759;48.094;-1.628;2023-02-14T01:01:21;20.40;44.90
40738;DHT22;54759;48.094;-1.628;2023-02-14T01:04:23;20.60;45.20
40738;DHT22;54759;48.094;-1.628;2023-02-14T01:07:25;20.40;45.20
40738;DHT22;54759;48.094;-1.628;2023-02-14T01:10:26;20.30;45.00
40738;DHT22;54759;48.094;-1.628;2023-02-14T01:13:27;20.70;45.30
40738;DHT22;54759;48.094;-1.628;2023-02-14T01:16:29;20.20;45.10
40738;DHT22;54759;48.094;-1.628;2023-02-14T01:19:30;20.30;45.00
40738;DHT22;54759;48.094;-1.628;2023-02-14T01:22:34;20.20;45.10
40738;DHT22;54759;48.094;-1.628;2023-02-14T01:25:36;20.70;45.10
40738;DHT22;54759;48.094;-1.628;2023-02-14T01:28:38;21.00;45.30
40738;DHT22;54759;48.094;-1.628;2023-02-14T01:31:39;20.30;45.00
40738;DHT22;54759;48.094;-1.628;2023-02-14T01:34:41;20.20;45.00
40738;DHT22;54759;48.094;-1.628;2023-02-14T01:37:43;20.40;45.20
40738;DHT22;54759;48.094;-1.628;2023-02-14T01:40:44;20.20;45.00
40738;DHT22;54759;48.094;-1.628;2023-02-14T01:43:49;20.30;45.20
40738;DHT22;54759;48.094;-1.628;2023-02-14T01:46:51;20.10;44.80
40738;DHT22;54759;48.094;-1.628;2023-02-14T01:49:53;20.20;45.00
40738;DHT22;54759;48.094;-1.628;2023-02-14T01:52:56;20.10;44.80
40738;DHT22;54759;48.094;-1.628;2023-02-14T01:56:01;20.30;45.20
40738;DHT22;54759;48.094;-1.628;2023-02-14T01:59:05;20.80;45.10
40738;DHT22;54759;48.094;-1.628;2023-02-14T02:02:08;20.50;45.10
40738;DHT22;54759;48.094;-1.628;2023-02-14T02:05:09;20.10;44.70
40738;DHT22;54759;48.094;-1.628;2023-02-14T02:08:11;20.20;45.50
40738;DHT22;54759;48.094;-1.628;2023-02-14T02:11:13;20.00;44.90
40738;DHT22;54759;48.094;-1.628;2023-02-14T02:14:15;20.50;45.10
40738;DHT22;54759;48.094;-1.628;2023-02-14T02:17:19;20.10;44.70
40738;DHT22;54759;48.094;-1.628;2023-02-14T02:20:27;20.30;44.70
40738;DHT22;54759;48.094;-1.628;2023-02-14T02:23:41;20.20;44.70
40738;DHT22;54759;48.094;-1.628;2023-02-14T02:33:24;20.20;44.60
40738;DHT22;54759;48.094;-1.628;2023-02-14T02:36:40;20.10;44.60
40738;DHT22;54759;48.094;-1.628;2023-02-14T02:39:49;20.00;44.60
40738;DHT22;54759;48.094;-1.628;2023-02-14T02:42:57;20.10;44.50
40738;DHT22;54759;48.094;-1.628;2023-02-14T02:46:06;20.30;44.60
40738;DHT22;54759;48.094;-1.628;2023-02-14T02:49:25;20.50;44.70
40738;DHT22;54759;48.094;-1.628;2023-02-14T02:52:44;20.20;44.60
40738;DHT22;54759;48.094;-1.628;2023-02-14T02:56:04;20.10;44.50
40738;DHT22;54759;48.094;-1.628;2023-02-14T02:59:22;20.20;44.50
40738;DHT22;54759;48.094;-1.628;2023-02-14T03:02:27;20.90;45.00
40738;DHT22;54759;48.094;-1.628;2023-02-14T03:05:32;20.10;44.60
40738;DHT22;54759;48.094;-1.628;2023-02-14T03:08:35;20.00;44.40
40738;DHT22;54759;48.094;-1.628;2023-02-14T03:11:37;20.10;44.70
40738;DHT22;54759;48.094;-1.628;2023-02-14T03:14:42;20.10;44.40
40738;DHT22;54759;48.094;-1.628;2023-02-14T03:17:48;20.40;44.50
40738;DHT22;54759;48.094;-1.628;2023-02-14T03:20:57;20.60;44.70
40738;DHT22;54759;48.094;-1.628;2023-02-14T03:24:04;20.10;44.30
40738;DHT22;54759;48.094;-1.628;2023-02-14T03:27:09;19.90;44.20
40738;DHT22;54759;48.094;-1.628;2023-02-14T03:30:16;20.20;44.50
40738;DHT22;54759;48.094;-1.628;2023-02-14T03:33:22;21.00;44.80
40738;DHT22;54759;48.094;-1.628;2023-02-14T03:36:26;20.00;44.30
40738;DHT22;54759;48.094;-1.628;2023-02-14T03:39:34;19.90;44.20
40738;DHT22;54759;48.094;-1.628;2023-02-14T03:42:38;20.10;44.40
40738;DHT22;54759;48.094;-1.628;2023-02-14T03:45:43;20.00;44.30
40738;DHT22;54759;48.094;-1.628;2023-02-14T03:48:46;20.10;44.30
40738;DHT22;54759;48.094;-1.628;2023-02-14T03:51:49;20.20;44.30
40738;DHT22;54759;48.094;-1.628;2023-02-14T03:54:53;20.10;44.40
40738;DHT22;54759;48.094;-1.628;2023-02-14T03:57:57;19.90;44.30
40738;DHT22;54759;48.094;-1.628;2023-02-14T04:01:03;20.10;44.30
40738;DHT22;54759;48.094;-1.628;2023-02-14T04:04:06;20.80;44.70
40738;DHT22;54759;48.094;-1.628;2023-02-14T04:07:09;20.00;44.40
40738;DHT22;54759;48.094;-1.628;2023-02-14T04:10:11;20.00;44.20
40738;DHT22;54759;48.094;-1.628;2023-02-14T04:13:13;20.20;44.30
40738;DHT22;54759;48.094;-1.628;2023-02-14T04:16:14;19.80;44.20
40738;DHT22;54759;48.094;-1.628;2023-02-14T04:19:16;20.00;44.10
40738;DHT22;54759;48.094;-1.628;2023-02-14T04:22:23;20.10;44.20
40738;DHT22;54759;48.094;-1.628;2023-02-14T04:25:25;20.30;44.30
40738;DHT22;54759;48.094;-1.628;2023-02-14T04:28:27;19.90;44.10
40738;DHT22;54759;48.094;-1.628;2023-02-14T04:31:28;19.90;44.10
40738;DHT22;54759;48.094;-1.628;2023-02-14T04:34:29;20.60;44.50
40738;DHT22;54759;48.094;-1.628;2023-02-14T04:37:31;20.10;44.30
40738;DHT22;54759;48.094;-1.628;2023-02-14T04:40:32;20.00;44.50
40738;DHT22;54759;48.094;-1.628;2023-02-14T04:43:34;20.00;44.20
40738;DHT22;54759;48.094;-1.628;2023-02-14T04:46:35;19.80;44.20
40738;DHT22;54759;48.094;-1.628;2023-02-14T04:49:36;20.00;44.20
40738;DHT22;54759;48.094;-1.628;2023-02-14T04:52:37;19.90;44.20
40738;DHT22;54759;48.094;-1.628;2023-02-14T04:55:39;20.00;44.20
40738;DHT22;54759;48.094;-1.628;2023-02-14T04:58:41;20.60;44.60
40738;DHT22;54759;48.094;-1.628;2023-02-14T05:01:42;20.30;44.80
40738;DHT22;54759;48.094;-1.628;2023-02-14T05:04:44;19.80;44.00
40738;DHT22;54759;48.094;-1.628;2023-02-14T05:07:45;20.10;44.20
40738;DHT22;54759;48.094;-1.628;2023-02-14T05:10:48;19.80;43.90
40738;DHT22;54759;48.094;-1.628;2023-02-14T05:13:49;20.30;44.10
40738;DHT22;54759;48.094;-1.628;2023-02-14T05:16:50;19.90;44.10
40738;DHT22;54759;48.094;-1.628;2023-02-14T05:19:52;20.00;44.00
40738;DHT22;54759;48.094;-1.628;2023-02-14T05:22:53;20.50;44.30
40738;DHT22;54759;48.094;-1.628;2023-02-14T05:25:55;20.10;43.90
40738;DHT22;54759;48.094;-1.628;2023-02-14T05:28:56;19.80;44.00
40738;DHT22;54759;48.094;-1.628;2023-02-14T05:31:57;19.90;44.10
40738;DHT22;54759;48.094;-1.628;2023-02-14T05:34:59;19.90;43.90
40738;DHT22;54759;48.094;-1.628;2023-02-14T05:38:01;19.90;44.00
40738;DHT22;54759;48.094;-1.628;2023-02-14T05:41:03;19.70;43.90
40738;DHT22;54759;48.094;-1.628;2023-02-14T05:44:05;20.30;44.10
40738;DHT22;54759;48.094;-1.628;2023-02-14T05:47:06;20.00;44.00
40738;DHT22;54759;48.094;-1.628;2023-02-14T05:50:08;19.90;44.00
40738;DHT22;54759;48.094;-1.628;2023-02-14T05:53:09;20.30;43.70
40738;DHT22;54759;48.094;-1.628;2023-02-14T05:56:11;19.90;43.90
40738;DHT22;54759;48.094;-1.628;2023-02-14T05:59:12;20.20;44.00
40738;DHT22;54759;48.094;-1.628;2023-02-14T06:02:14;19.90;43.80
40738;DHT22;54759;48.094;-1.628;2023-02-14T06:05:15;19.70;43.90
40738;DHT22;54759;48.094;-1.628;2023-02-14T06:08:18;19.80;43.90
40738;DHT22;54759;48.094;-1.628;2023-02-14T06:11:19;19.70;43.90
40738;DHT22;54759;48.094;-1.628;2023-02-14T06:14:21;20.00;44.00
40738;DHT22;54759;48.094;-1.628;2023-02-14T06:17:22;20.80;44.50
40738;DHT22;54759;48.094;-1.628;2023-02-14T06:20:23;20.00;43.90
40738;DHT22;54759;48.094;-1.628;2023-02-14T06:23:25;19.70;43.70
40738;DHT22;54759;48.094;-1.628;2023-02-14T06:26:27;19.90;43.90
40738;DHT22;54759;48.094;-1.628;2023-02-14T06:29:28;20.30;44.10
40738;DHT22;54759;48.094;-1.628;2023-02-14T06:32:29;20.00;44.00
40738;DHT22;54759;48.094;-1.628;2023-02-14T06:35:31;20.70;44.30
40738;DHT22;54759;48.094;-1.628;2023-02-14T06:38:32;19.90;43.90
40738;DHT22;54759;48.094;-1.628;2023-02-14T06:41:34;19.80;43.90
40738;DHT22;54759;48.094;-1.628;2023-02-14T06:44:35;19.90;43.80
40738;DHT22;54759;48.094;-1.628;2023-02-14T06:47:36;20.70;44.40
40738;DHT22;54759;48.094;-1.628;2023-02-14T06:50:38;20.10;43.90
40738;DHT22;54759;48.094;-1.628;2023-02-14T06:53:39;19.70;43.60
40738;DHT22;54759;48.094;-1.628;2023-02-14T06:56:41;19.80;43.40
40738;DHT22;54759;48.094;-1.628;2023-02-14T06:59:42;20.60;44.20
40738;DHT22;54759;48.094;-1.628;2023-02-14T07:02:43;20.00;43.70
40738;DHT22;54759;48.094;-1.628;2023-02-14T07:05:45;20.40;44.00
40738;DHT22;54759;48.094;-1.628;2023-02-14T07:08:47;19.80;43.50
40738;DHT22;54759;48.094;-1.628;2023-02-14T07:11:48;20.40;44.00
40738;DHT22;54759;48.094;-1.628;2023-02-14T07:14:50;20.00;43.60
40738;DHT22;54759;48.094;-1.628;2023-02-14T07:17:51;20.10;43.60
40738;DHT22;54759;48.094;-1.628;2023-02-14T07:20:52;19.90;43.20
40738;DHT22;54759;48.094;-1.628;2023-02-14T07:23:54;20.30;43.40
40738;DHT22;54759;48.094;-1.628;2023-02-14T07:26:55;20.00;43.10
40738;DHT22;54759;48.094;-1.628;2023-02-14T07:29:57;20.30;43.30
40738;DHT22;54759;48.094;-1.628;2023-02-14T07:32:58;19.90;42.80
40738;DHT22;54759;48.094;-1.628;2023-02-14T07:36:02;20.50;43.20
40738;DHT22;54759;48.094;-1.628;2023-02-14T07:39:04;20.10;42.60
40738;DHT22;54759;48.094;-1.628;2023-02-14T07:42:05;21.00;43.30
40738;DHT22;54759;48.094;-1.628;2023-02-14T07:45:09;20.20;42.60
40738;DHT22;54759;48.094;-1.628;2023-02-14T07:48:22;20.90;43.00
40738;DHT22;54759;48.094;-1.628;2023-02-14T07:51:25;20.60;42.60
40738;DHT22;54759;48.094;-1.628;2023-02-14T07:54:26;21.00;42.90
40738;DHT22;54759;48.094;-1.628;2023-02-14T07:57:28;20.30;42.50
40738;DHT22;54759;48.094;-1.628;2023-02-14T08:00:29;21.00;42.80
40738;DHT22;54759;48.094;-1.628;2023-02-14T08:03:30;20.40;42.40
40738;DHT22;54759;48.094;-1.628;2023-02-14T08:06:32;20.80;42.50
40738;DHT22;54759;48.094;-1.628;2023-02-14T08:09:35;20.50;42.10
40738;DHT22;54759;48.094;-1.628;2023-02-14T08:12:36;21.00;42.40
40738;DHT22;54759;48.094;-1.628;2023-02-14T08:15:52;20.60;42.30
40738;DHT22;54759;48.094;-1.628;2023-02-14T08:19:09;21.20;42.50
40738;DHT22;54759;48.094;-1.628;2023-02-14T08:22:10;20.60;42.10
40738;DHT22;54759;48.094;-1.628;2023-02-14T08:25:11;21.00;42.40
40738;DHT22;54759;48.094;-1.628;2023-02-14T08:28:14;20.50;41.90
40738;DHT22;54759;48.094;-1.628;2023-02-14T08:31:20;20.90;41.90
40738;DHT22;54759;48.094;-1.628;2023-02-14T08:34:35;20.60;41.80
40738;DHT22;54759;48.094;-1.628;2023-02-14T08:37:36;21.10;42.20
40738;DHT22;54759;48.094;-1.628;2023-02-14T08:40:37;20.70;41.90
40738;DHT22;54759;48.094;-1.628;2023-02-14T08:43:39;21.00;42.10
40738;DHT22;54759;48.094;-1.628;2023-02-14T08:46:41;20.50;41.90
40738;DHT22;54759;48.094;-1.628;2023-02-14T08:49:42;21.00;42.20
40738;DHT22;54759;48.094;-1.628;2023-02-14T08:52:44;20.60;41.90
40738;DHT22;54759;48.094;-1.628;2023-02-14T08:55:45;21.20;41.90
40738;DHT22;54759;48.094;-1.628;2023-02-14T08:58:50;21.00;41.70
40738;DHT22;54759;48.094;-1.628;2023-02-14T09:01:52;21.50;42.00
40738;DHT22;54759;48.094;-1.628;2023-02-14T09:04:53;21.10;42.00
40738;DHT22;54759;48.094;-1.628;2023-02-14T09:07:54;21.60;42.20
40738;DHT22;54759;48.094;-1.628;2023-02-14T09:10:56;20.70;41.60
40738;DHT22;54759;48.094;-1.628;2023-02-14T09:13:58;21.10;41.60
40738;DHT22;54759;48.094;-1.628;2023-02-14T09:16:59;20.90;41.70
40738;DHT22;54759;48.094;-1.628;2023-02-14T09:20:01;21.20;42.00
40738;DHT22;54759;48.094;-1.628;2023-02-14T09:23:02;20.90;41.60
40738;DHT22;54759;48.094;-1.628;2023-02-14T09:26:04;21.10;41.90
40738;DHT22;54759;48.094;-1.628;2023-02-14T09:29:07;22.30;42.20
40738;DHT22;54759;48.094;-1.628;2023-02-14T09:32:09;21.30;41.70
40738;DHT22;54759;48.094;-1.628;2023-02-14T09:35:11;20.90;41.70
40738;DHT22;54759;48.094;-1.628;2023-02-14T09:38:12;21.60;41.90
40738;DHT22;54759;48.094;-1.628;2023-02-14T09:41:22;21.10;41.60
40738;DHT22;54759;48.094;-1.628;2023-02-14T09:44:32;21.30;41.50
40738;DHT22;54759;48.094;-1.628;2023-02-14T09:47:38;21.10;41.70
40738;DHT22;54759;48.094;-1.628;2023-02-14T09:50:41;21.50;41.50
40738;DHT22;54759;48.094;-1.628;2023-02-14T09:53:44;21.00;41.40
40738;DHT22;54759;48.094;-1.628;2023-02-14T09:56:48;21.20;41.70
40738;DHT22;54759;48.094;-1.628;2023-02-14T09:59:56;21.00;41.50
40738;DHT22;54759;48.094;-1.628;2023-02-14T10:03:01;21.20;41.50
40738;DHT22;54759;48.094;-1.628;2023-02-14T10:06:05;21.30;41.50
40738;DHT22;54759;48.094;-1.628;2023-02-14T10:09:10;21.20;41.40
40738;DHT22;54759;48.094;-1.628;2023-02-14T10:12:15;20.90;41.30
40738;DHT22;54759;48.094;-1.628;2023-02-14T10:15:22;21.70;41.80
40738;DHT22;54759;48.094;-1.628;2023-02-14T10:18:25;21.20;41.60
40738;DHT22;54759;48.094;-1.628;2023-02-14T10:21:29;21.70;41.90
40738;DHT22;54759;48.094;-1.628;2023-02-14T10:24:32;21.10;41.50
40738;DHT22;54759;48.094;-1.628;2023-02-14T10:27:36;21.40;41.60
40738;DHT22;54759;48.094;-1.628;2023-02-14T10:30:41;21.40;41.60
40738;DHT22;54759;48.094;-1.628;2023-02-14T10:33:49;21.40;41.60
40738;DHT22;54759;48.094;-1.628;2023-02-14T10:36:55;21.40;41.50
40738;DHT22;54759;48.094;-1.628;2023-02-14T10:40:06;21.40;41.50
40738;DHT22;54759;48.094;-1.628;2023-02-14T10:43:12;21.20;41.40
40738;DHT22;54759;48.094;-1.628;2023-02-14T10:46:17;21.80;41.80
40738;DHT22;54759;48.094;-1.628;2023-02-14T10:49:28;21.20;41.50
40738;DHT22;54759;48.094;-1.628;2023-02-14T10:52:34;21.40;41.50
40738;DHT22;54759;48.094;-1.628;2023-02-14T10:55:39;21.50;41.50
40738;DHT22;54759;48.094;-1.628;2023-02-14T10:58:42;21.50;41.30
40738;DHT22;54759;48.094;-1.628;2023-02-14T11:01:45;21.40;41.50
40738;DHT22;54759;48.094;-1.628;2023-02-14T11:04:47;21.60;41.10
40738;DHT22;54759;48.094;-1.628;2023-02-14T11:07:49;21.20;41.30
40738;DHT22;54759;48.094;-1.628;2023-02-14T11:10:50;21.50;41.60
40738;DHT22;54759;48.094;-1.628;2023-02-14T11:13:52;21.50;41.70
40738;DHT22;54759;48.094;-1.628;2023-02-14T11:16:54;21.30;41.30
40738;DHT22;54759;48.094;-1.628;2023-02-14T11:19:57;21.50;41.60
40738;DHT22;54759;48.094;-1.628;2023-02-14T11:22:58;21.80;41.80
40738;DHT22;54759;48.094;-1.628;2023-02-14T11:26:00;21.20;41.50
40738;DHT22;54759;48.094;-1.628;2023-02-14T11:29:03;21.20;41.30
40738;DHT22;54759;48.094;-1.628;2023-02-14T11:32:12;21.40;41.40
40738;DHT22;54759;48.094;-1.628;2023-02-14T11:35:16;21.90;41.80
40738;DHT22;54759;48.094;-1.628;2023-02-14T11:38:22;21.50;41.60
40738;DHT22;54759;48.094;-1.628;2023-02-14T11:41:25;21.60;41.50
40738;DHT22;54759;48.094;-1.628;2023-02-14T11:44:27;21.30;41.40
40738;DHT22;54759;48.094;-1.628;2023-02-14T11:47:30;22.00;41.80
40738;DHT22;54759;48.094;-1.628;2023-02-14T11:50:32;21.30;41.60
40738;DHT22;54759;48.094;-1.628;2023-02-14T11:53:36;21.40;40.40
40738;DHT22;54759;48.094;-1.628;2023-02-14T11:56:43;21.30;41.20
40738;DHT22;54759;48.094;-1.628;2023-02-14T11:59:46;22.00;41.60
40738;DHT22;54759;48.094;-1.628;2023-02-14T12:02:49;21.20;41.20
40738;DHT22;54759;48.094;-1.628;2023-02-14T12:05:51;21.70;39.80
40738;DHT22;54759;48.094;-1.628;2023-02-14T12:12:15;21.60;40.80
40738;DHT22;54759;48.094;-1.628;2023-02-14T12:15:21;21.50;41.30
40738;DHT22;54759;48.094;-1.628;2023-02-14T12:21:43;21.60;41.40
40738;DHT22;54759;48.094;-1.628;2023-02-14T12:24:48;21.80;41.50
40738;DHT22;54759;48.094;-1.628;2023-02-14T12:27:53;21.40;41.20
40738;DHT22;54759;48.094;-1.628;2023-02-14T12:30:56;21.70;40.60
40738;DHT22;54759;48.094;-1.628;2023-02-14T12:33:59;21.40;41.00
40738;DHT22;54759;48.094;-1.628;2023-02-14T12:37:07;21.90;41.50
40738;DHT22;54759;48.094;-1.628;2023-02-14T12:40:11;21.40;41.30
40738;DHT22;54759;48.094;-1.628;2023-02-14T12:43:21;21.60;41.30
40738;DHT22;54759;48.094;-1.628;2023-02-14T12:46:30;21.60;41.30
40738;DHT22;54759;48.094;-1.628;2023-02-14T12:49:44;22.20;41.50
40738;DHT22;54759;48.094;-1.628;2023-02-14T12:52:57;21.40;41.10
40738;DHT22;54759;48.094;-1.628;2023-02-14T12:56:04;22.00;41.30
40738;DHT22;54759;48.094;-1.628;2023-02-14T12:59:11;21.70;41.20
40738;DHT22;54759;48.094;-1.628;2023-02-14T13:02:23;22.10;41.50
40738;DHT22;54759;48.094;-1.628;2023-02-14T13:05:33;21.70;41.30
40738;DHT22;54759;48.094;-1.628;2023-02-14T13:08:42;22.10;41.40
40738;DHT22;54759;48.094;-1.628;2023-02-14T13:11:49;21.50;41.10
40738;DHT22;54759;48.094;-1.628;2023-02-14T13:14:56;22.20;41.60
40738;DHT22;54759;48.094;-1.628;2023-02-14T13:18:03;21.80;41.20
40738;DHT22;54759;48.094;-1.628;2023-02-14T13:21:07;21.80;41.20
40738;DHT22;54759;48.094;-1.628;2023-02-14T13:24:14;21.40;41.00
40738;DHT22;54759;48.094;-1.628;2023-02-14T13:27:17;21.80;41.10
40738;DHT22;54759;48.094;-1.628;2023-02-14T13:30:23;21.70;41.20
40738;DHT22;54759;48.094;-1.628;2023-02-14T13:33:26;21.90;41.40
40738;DHT22;54759;48.094;-1.628;2023-02-14T13:36:28;21.90;41.30
40738;DHT22;54759;48.094;-1.628;2023-02-14T13:39:32;22.30;41.60
40738;DHT22;54759;48.094;-1.628;2023-02-14T13:42:48;21.50;41.20
40738;DHT22;54759;48.094;-1.628;2023-02-14T13:45:53;21.80;41.20
40738;DHT22;54759;48.094;-1.628;2023-02-14T13:48:56;21.80;41.20
40738;DHT22;54759;48.094;-1.628;2023-02-14T13:51:59;22.20;41.90
40738;DHT22;54759;48.094;-1.628;2023-02-14T13:55:05;21.70;41.10
40738;DHT22;54759;48.094;-1.628;2023-02-14T13:58:12;22.20;41.30
40738;DHT22;54759;48.094;-1.628;2023-02-14T14:01:26;21.70;41.10
40738;DHT22;54759;48.094;-1.628;2023-02-14T14:04:32;22.00;38.50
40738;DHT22;54759;48.094;-1.628;2023-02-14T14:07:34;21.50;41.10
40738;DHT22;54759;48.094;-1.628;2023-02-14T14:10:41;21.70;41.40
40738;DHT22;54759;48.094;-1.628;2023-02-14T14:13:53;21.60;41.20
40738;DHT22;54759;48.094;-1.628;2023-02-14T14:16:56;21.60;41.10
40738;DHT22;54759;48.094;-1.628;2023-02-14T14:19:58;21.90;41.20
40738;DHT22;54759;48.094;-1.628;2023-02-14T14:23:00;22.30;41.50
40738;DHT22;54759;48.094;-1.628;2023-02-14T14:26:02;21.60;41.10
40738;DHT22;54759;48.094;-1.628;2023-02-14T14:29:24;22.10;41.30
40738;DHT22;54759;48.094;-1.628;2023-02-14T14:32:28;21.80;41.10
40738;DHT22;54759;48.094;-1.628;2023-02-14T14:35:30;21.90;41.00
40738;DHT22;54759;48.094;-1.628;2023-02-14T14:38:32;21.70;40.90
40738;DHT22;54759;48.094;-1.628;2023-02-14T14:41:34;22.10;41.20
40738;DHT22;54759;48.094;-1.628;2023-02-14T14:44:36;21.80;41.20
40738;DHT22;54759;48.094;-1.628;2023-02-14T14:47:44;22.00;41.10
40738;DHT22;54759;48.094;-1.628;2023-02-14T14:50:46;21.60;40.90
40738;DHT22;54759;48.094;-1.628;2023-02-14T14:53:50;22.20;41.30
40738;DHT22;54759;48.094;-1.628;2023-02-14T14:56:53;22.00;41.30
40738;DHT22;54759;48.094;-1.628;2023-02-14T15:00:05;21.90;41.10
40738;DHT22;54759;48.094;-1.628;2023-02-14T15:03:13;21.60;40.70
40738;DHT22;54759;48.094;-1.628;2023-02-14T15:06:15;21.90;40.90
40738;DHT22;54759;48.094;-1.628;2023-02-14T15:09:18;21.60;40.80
40738;DHT22;54759;48.094;-1.628;2023-02-14T15:12:23;22.20;41.20
40738;DHT22;54759;48.094;-1.628;2023-02-14T15:15:40;21.40;40.80
40738;DHT22;54759;48.094;-1.628;2023-02-14T15:18:41;22.40;41.30
40738;DHT22;54759;48.094;-1.628;2023-02-14T15:21:43;21.60;40.60
40738;DHT22;54759;48.094;-1.628;2023-02-14T15:24:45;22.20;41.10
40738;DHT22;54759;48.094;-1.628;2023-02-14T15:27:48;21.60;40.70
40738;DHT22;54759;48.094;-1.628;2023-02-14T15:30:53;21.90;40.90
40738;DHT22;54759;48.094;-1.628;2023-02-14T15:33:55;21.60;40.60
40738;DHT22;54759;48.094;-1.628;2023-02-14T15:36:57;22.40;41.10
40738;DHT22;54759;48.094;-1.628;2023-02-14T15:40:06;21.70;40.70
40738;DHT22;54759;48.094;-1.628;2023-02-14T15:43:13;22.10;40.90
40738;DHT22;54759;48.094;-1.628;2023-02-14T15:46:16;21.80;40.60
40738;DHT22;54759;48.094;-1.628;2023-02-14T15:49:19;22.10;40.60
40738;DHT22;54759;48.094;-1.628;2023-02-14T15:52:21;21.80;40.60
40738;DHT22;54759;48.094;-1.628;2023-02-14T15:55:23;22.20;40.90
40738;DHT22;54759;48.094;-1.628;2023-02-14T15:58:27;21.80;40.60
40738;DHT22;54759;48.094;-1.628;2023-02-14T16:01:29;22.50;40.80
40738;DHT22;54759;48.094;-1.628;2023-02-14T16:04:32;21.80;40.30
40738;DHT22;54759;48.094;-1.628;2023-02-14T16:07:33;22.40;40.70
40738;DHT22;54759;48.094;-1.628;2023-02-14T16:10:35;22.30;40.50
40738;DHT22;54759;48.094;-1.628;2023-02-14T16:13:38;22.20;40.30
40738;DHT22;54759;48.094;-1.628;2023-02-14T16:19:53;22.50;40.80
40738;DHT22;54759;48.094;-1.628;2023-02-14T16:26:10;22.10;40.40
40738;DHT22;54759;48.094;-1.628;2023-02-14T16:29:13;22.20;40.40
40738;DHT22;54759;48.094;-1.628;2023-02-14T16:32:16;22.30;40.60
40738;DHT22;54759;48.094;-1.628;2023-02-14T16:35:20;22.30;40.50
40738;DHT22;54759;48.094;-1.628;2023-02-14T16:38:21;22.50;40.70
40738;DHT22;54759;48.094;-1.628;2023-02-14T16:41:23;22.20;40.60
40738;DHT22;54759;48.094;-1.628;2023-02-14T16:44:26;22.20;40.40
40738;DHT22;54759;48.094;-1.628;2023-02-14T16:47:27;22.00;40.30
40738;DHT22;54759;48.094;-1.628;2023-02-14T16:50:29;22.40;40.60
40738;DHT22;54759;48.094;-1.628;2023-02-14T16:53:30;22.20;40.50
40738;DHT22;54759;48.094;-1.628;2023-02-14T16:56:32;22.40;40.60
40738;DHT22;54759;48.094;-1.628;2023-02-14T16:59:37;22.20;40.50
40738;DHT22;54759;48.094;-1.628;2023-02-14T17:02:38;22.50;40.80
40738;DHT22;54759;48.094;-1.628;2023-02-14T17:05:39;22.20;40.40
40738;DHT22;54759;48.094;-1.628;2023-02-14T17:08:41;22.30;40.50
40738;DHT22;54759;48.094;-1.628;2023-02-14T17:11:43;22.20;40.40
40738;DHT22;54759;48.094;-1.628;2023-02-14T17:14:47;22.70;40.70
40738;DHT22;54759;48.094;-1.628;2023-02-14T17:17:49;22.00;40.40
40738;DHT22;54759;48.094;-1.628;2023-02-14T17:20:52;22.80;40.80
40738;DHT22;54759;48.094;-1.628;2023-02-14T17:23:54;22.30;40.50
40738;DHT22;54759;48.094;-1.628;2023-02-14T17:26:56;22.70;40.80
40738;DHT22;54759;48.094;-1.628;2023-02-14T17:29:58;22.10;40.40
40738;DHT22;54759;48.094;-1.628;2023-02-14T17:32:59;22.50;40.80
40738;DHT22;54759;48.094;-1.628;2023-02-14T17:36:02;22.10;40.30
40738;DHT22;54759;48.094;-1.628;2023-02-14T17:39:05;22.60;40.70
40738;DHT22;54759;48.094;-1.628;2023-02-14T17:42:06;22.10;40.00
40738;DHT22;54759;48.094;-1.628;2023-02-14T17:45:08;22.40;40.40
40738;DHT22;54759;48.094;-1.628;2023-02-14T17:48:11;22.10;40.60
40738;DHT22;54759;48.094;-1.628;2023-02-14T17:51:13;22.60;41.00
40738;DHT22;54759;48.094;-1.628;2023-02-14T17:54:15;22.40;40.70
40738;DHT22;54759;48.094;-1.628;2023-02-14T17:57:16;22.30;40.80
40738;DHT22;54759;48.094;-1.628;2023-02-14T18:00:21;21.90;40.70
40738;DHT22;54759;48.094;-1.628;2023-02-14T18:03:22;21.90;40.40
40738;DHT22;54759;48.094;-1.628;2023-02-14T18:06:24;22.00;40.60
40738;DHT22;54759;48.094;-1.628;2023-02-14T18:09:26;22.50;40.90
40738;DHT22;54759;48.094;-1.628;2023-02-14T18:12:27;22.10;40.60
40738;DHT22;54759;48.094;-1.628;2023-02-14T18:15:29;22.40;41.10
40738;DHT22;54759;48.094;-1.628;2023-02-14T18:18:31;22.10;40.90
40738;DHT22;54759;48.094;-1.628;2023-02-14T18:21:33;22.20;40.80
40738;DHT22;54759;48.094;-1.628;2023-02-14T18:24:35;22.30;40.90
40738;DHT22;54759;48.094;-1.628;2023-02-14T18:27:36;22.60;41.20
40738;DHT22;54759;48.094;-1.628;2023-02-14T18:30:39;21.90;40.70
40738;DHT22;54759;48.094;-1.628;2023-02-14T18:33:41;22.50;41.20
40738;DHT22;54759;48.094;-1.628;2023-02-14T18:36:42;22.20;41.00
40738;DHT22;54759;48.094;-1.628;2023-02-14T18:39:43;22.60;41.40
40738;DHT22;54759;48.094;-1.628;2023-02-14T18:42:45;21.80;40.90
40738;DHT22;54759;48.094;-1.628;2023-02-14T18:45:47;22.30;41.20
40738;DHT22;54759;48.094;-1.628;2023-02-14T18:48:48;21.90;40.90
40738;DHT22;54759;48.094;-1.628;2023-02-14T18:51:49;22.10;41.10
40738;DHT22;54759;48.094;-1.628;2023-02-14T18:54:51;21.80;41.00
40738;DHT22;54759;48.094;-1.628;2023-02-14T18:57:53;22.20;41.30
40738;DHT22;54759;48.094;-1.628;2023-02-14T19:00:54;21.80;41.00
40738;DHT22;54759;48.094;-1.628;2023-02-14T19:03:56;22.20;41.30
40738;DHT22;54759;48.094;-1.628;2023-02-14T19:06:59;22.10;41.30
40738;DHT22;54759;48.094;-1.628;2023-02-14T19:10:00;22.30;41.50
40738;DHT22;54759;48.094;-1.628;2023-02-14T19:13:02;21.80;41.10
40738;DHT22;54759;48.094;-1.628;2023-02-14T19:16:08;21.60;41.00
40738;DHT22;54759;48.094;-1.628;2023-02-14T19:19:09;21.80;41.00